Air Resources Laboratory banner image
Air Resources Laboratory web site National Oceanic and Atmospheric Administration (NOAA)

nc metar


K2DP 110856Z AUTO 23004KT 10SM CLR 23/23 A2999 RMK AO2 SLPNO 60000 T02320232
 58015 $=
KAKH 110854Z AUTO 00000KT 10SM CLR 21/21 A3008 RMK AO2 SLP177 60003 T02110211
 56011=
KASJ 110855Z AUTO 00000KT 10SM CLR 22/22 A3000 RMK AO2 60001 T02200220=
KAVL 110854Z AUTO 35006KT 10SM OVC002 19/18 A3015 RMK AO2 SLP187 T01940183
 56015=
KBUY 110854Z AUTO 00000KT 10SM CLR 23/21 A3002 RMK AO2 SLP157 T02280211 58023=
KCLT 110852Z 00000KT 10SM OVC140 22/21 A3008 RMK SLP176 60005 T02220211 55014=
KDPL 110855Z AUTO 21003KT 10SM CLR 24/22 A3005 RMK AO2=
KECG 110854Z AUTO 23005KT 10SM CLR 23/22 A2999 RMK AO2 SLP154 60024 T02330222
 56024=
KEDE 110855Z AUTO 24003KT 10SM CLR 25/25 A3001 RMK AO2 T02520248=
KEQY 110853Z AUTO 23006KT 10SM OVC120 23/21 A3007 RMK AO2 SLP178 T02330211
 55012=
KEWN 110854Z AUTO 23004KT 10SM CLR 24/23 A3003 RMK AO2 SLP169 T02440228 58019=
KEXX 110855Z AUTO 21003KT 10SM CLR 22/22 A3005 RMK AO2 T02240224=
KFAY 110853Z 21010KT 10SM CLR 26/20 A3005 RMK AO2 SLP168 T02560200 55014=
KFBG 110856Z AUTO 21008KT 10SM FEW190 SCT220 26/21 A3003 RMK AO2 SLP169
 T02600205 55014=
KFQD 110855Z AUTO 00000KT 10SM CLR 21/21 A3011 RMK AO2=
KGEV 110855Z AUTO 30009KT 10SM BKN014 OVC023 19/16 A3018 RMK AO2 T01900161=
KGSB 110856Z 16005KT 10SM FEW150 SCT180 BKN220 24/16 A3000 RMK AO2A SLP161
 T02420157 57019 $=
KGSO 110854Z 31005KT 10SM BKN140 OVC190 22/20 A3004 RMK AO2 SLP161 T02220200
 58021=
KHBI 110855Z AUTO 21003KT 10SM SCT110 22/22 A3008 RMK AO2 T02240220=
KHFF 110856Z AUTO 23008KT 10SM FEW180 BKN230 25/21 A3004 RMK AO2 SLP171
 T02500209 55011 $=
KHKY 110853Z AUTO 26003KT 10SM BKN120 21/21 A3008 RMK AO2 SLP165 T02110211
 56016=
KHRJ 110855Z AUTO 19005KT 10SM CLR 24/22 A3004 RMK AO2 T02420218=
KHSE 110851Z AUTO 22005KT 7SM CLR 25/24 A3002 RMK AO2 SLP166 T02500239 58012=
KILM 110853Z 22008KT 10SM CLR 26/23 A3005 RMK AO2 SLP177 T02610233 58012=
KINT 110854Z AUTO 30005KT 10SM CLR 23/19 A3006 RMK AO2 SLP166 T02280194 58020=
KIPJ 110855Z AUTO 00000KT 10SM CLR 21/21 A3008 RMK AO2 T02100205=
KISO 110855Z AUTO 00000KT 10SM CLR 24/22 A3002 RMK AO2 T02390218=
KJNX 110855Z AUTO 18005KT 10SM CLR 23/22 A3002 RMK AO2=
KJQF 110855Z AUTO 23003KT 10SM CLR 22/21 A3010 RMK AO2=
KMEB 110852Z AUTO 22007KT 10SM FEW029 25/19 A3007 RMK AO2 SLP178 T02500189
 56008=
KMQI 110855Z AUTO 25011KT 10SM CLR 24/22 A3001 RMK AO2 60002 T02410222=
KMRH 110858Z AUTO 25007KT 9SM CLR 28/24 A3003 RMK AO2 SLP170 T02780244 58016=
KMRN 110855Z AUTO 00000KT 10SM BKN120 21/21 A3012 RMK AO2 T02110206=
KMWK 110855Z AUTO 00000KT 10SM CLR 21/19 A3009 RMK AO2 T02060186=
KNCA 110856Z AUTO 23006KT 4SM BR CLR 24/24 A3003 RMK AO2 SLP171 T02440244 58017=
KNJM 110857Z AUTO 25006KT 4SM HZ CLR 28/24 A3004 RMK AO2 SLP177 T02780239 58016=
KNKT 110856Z AUTO 22006KT 6SM BR CLR 25/23 A3003 RMK AO2 SLP167 T02500233 58020=
KOAJ 110856Z AUTO 22005KT 7SM CLR 24/23 A3005 RMK AO2 SLP177 T02390233 58017=
KOCW 110855Z AUTO 20004KT 10SM CLR 24/22 A3001 RMK AO2 T02360220=
KPGV 110855Z AUTO 00000KT 10SM CLR 23/23 A3001 RMK AO2=
KPOB 110856Z AUTO 20012KT 10SM OVC220 26/21 A3003 RMK AO2 SLP170 T02600205
 55015 $=
KRDU 110851Z 00000KT 10SM FEW160 BKN240 25/22 A3001 RMK AO2 SLP158 T02500222
 58021=
KRUQ 110855Z AUTO 23003KT 10SM CLR 22/21 A3007 RMK AO2 T02220206=
KRWI 110853Z AUTO 00000KT 10SM CLR 24/21 A3000 RMK AO2 SLP156 T02390211 58020=
KSOP 110856Z AUTO 20011KT 10SM CLR 25/22 A3006 RMK AO2 SLP180 T02500217 55017
 TSNO=
KSVH 110855Z AUTO 00000KT 10SM CLR 22/20 A3007 RMK AO2 T02160203=
KTDF 110855Z AUTO 00000KT 10SM CLR 22/21 A3004 RMK AO2=
KTNB 110850Z AUTO 28006KT 10SM CLR 19/17 A3019 RMK AO2 T01850172=
KUKF 110855Z AUTO 00000KT 10SM CLR 19/19 A3012 RMK AO2=
KVUJ 110855Z AUTO 00000KT 10SM -RA SCT120 23/23 A3010 RMK AO2 LTG DSNT E P0001
 60001 T02270225=